Warning: Javascript must be enabled to use all the features on this page!


Page Loading - Please Wait...

* We've detected you're using a mobile device. Find our Next Generation Station Page here.
Click to hideNews Bulletins

Peak Streamflow for Idaho

Click to hide state-specific text

USGS 13141500 CAMAS CREEK NR BLAINE ID

Camas County, Idaho
Hydrologic Unit Code 17040220
Latitude  43°19'58", Longitude 114°32'31" NAD83
Drainage area 626  square miles
Gage datum 4,870 feet above NGVD29
Output formats
Table
Graph
Tab-separated file
peakfq (watstore) format
Reselect output format
Water
Year
Date Gage
Height
(feet)
Stream-
flow
(cfs)
1924 1924-04-14 3.103 2805
1925 1925-04-05 12.353 5,0705
1927 1927-04-18 10.073 3,5405
1928 1928-03-23 7.163 1,8505
1929 1929-04-20 7.063 1,8005
1930 1930-04-02 3.953 5255
1931 1931-04-07 3.743 4665
1932 1932-04-10 9.033 2,8705
1933 1933-04-24 8.443 2,5105
1934 1934-03-14 3.123 2925
1935 1935-04-12 9.973 3,5405
1936 1936-04-21 14.303 7,4905
1937 1937-04-16 10.123 3,6105
1938 1938-04-18 15.483 8,6905
1939 1939-03-28 11.133 4,5105
1940 1940-03-28 9.253 2,9305
1941 1941-03-31 5.733 1,0605
1942 1942-04-10 11.143 4,4005
1943 1943-04-08 15.453 9,7805
1944 1944-04-04 4.903 8105
1945 1945-04-17 5.703 1,1105
1946 1946-04-12 11.683 5,6805
1947 1947-02-25 6.173 1,3405
1948 1948-04-03 5.673 1,1005
1949 1949-04-13 9.643 3,5605
1950 1950-04-17 12.753 6,7505
1951 1951-04-09 13.463 7,4705
1952 1952-04-20 15.253 9,4205
1953 1953-04-05 8.253 2,5305
1954 1954-04-07 8.283 2,6105
1955 1955-04-13 4.523 5525
1956 1956-04-11 11.193 4,4105
1957 1957-03-31 8.733 2,5705
1958 1958-04-16 10.373 3,6205
1959 1959-04-07 6.563 1,1505
1960 1960-04-10 11.933 5,2805
1961 1961-04-04 6.683 7845
1962 1962-04-10 11.183 4,5305
1963 1963-02-03 16.203 9,2005
1964 1964-04-15 9.733 2,9905
1965 1965-04-03 11.593 4,4705
1966 1966-04-01 11.173 4,2305
1967 1967-04-09   8201,5
1968 1968-03-14 4.96 3985
1969 1969-04-10 15.50 6,6005
1970 1970-04-06 9.47 2,4105
1971 1971-04-08 15.75 6,4005
1972 1972-03-23 11.92 3,6805
1973 1973-04-15 8.30 1,7305
1974 1974-03-28 14.41 5,3005
1975 1975-04-27 12.10 3,8205
1976 1976-04-11 14.33 5,2505
1977 1977-07-22 3.92 67.05
1978 1978-04-02 11.08 2,5805
1979 1979-03-26 6.42 8785
1980 1980-04-22 6.96 1,0705
1981 1981-03-20 5.07 3525
1982 1982-04-24 13.19 4,0605
1983 1983-04-25 13.19 4,3005
1984 1984-04-17 14.01 4,7405
1985 1985-04-12 13.16 4,2305
1986 1986-03-09 11.50 3,3605
1987 1987-03-10 6.79 1,0705
1988 1988-03-05 5.81 6505
1989 1989-04-09 12.73 4,0005
1990 1990-03-25 5.47 5265
1991 1991-05-19 4.07 1115
1992 1992-02-26 4.83 2845
1993 1993-04-05 11.34 3,3205
1994 1994-03-25   1341,5
1995 1995-04-06 9.18 2,2505
1996 1996-04-09 8.60 1,9705
1997 1997-03-27 10.47 3,2105
1998 1998-04-02 7.46 1,4905
1999 1999-04-21 10.74 3,4005
2000 2000-04-06 7.16 1,3005
2001 2001-03-22 4.74 2595
2002 2002-04-07 7.74 1,5705
2003 2003-03-15 4.99 3925
2004 2004-03-24 5.80 6935
2005 2005-05-21 6.71 1,2305
2006 2006-04-09 14.43 4,9205
2007 2007-03-20 5.51 5705
2008 2008-04-26 6.22 9075
2009 2009-04-10 5.87 7585
2010 2010-04-25 6.39 9565
2011 2011-04-04 9.79 2,6605
2012 2012-04-02 9.85 2,8705
2013 2013-03-03 4.14 2115
2014 2014-03-10 5.11 5245
2015 2015-02-16 5.51 6615
2016 2016-03-21 6.99 1,2405
2017 2017-03-26 13.43 6,0805
2018 2018-03-23 7.63 1,4805
2019 2019-04-10 12.04 4,3105
2020 2020-03-18 4.38 2835
?
  Peak Gage-Height Qualification Codes.
?
  Peak Streamflow Qualification Codes.